createdAt,value
2022-09-28T00:06:47.423Z,0.80
2022-09-28T00:16:52.506Z,1.20
2022-09-28T00:26:56.325Z,1.60
2022-09-28T00:36:58.494Z,1.17
2022-09-28T00:47:18.286Z,1.20
2022-09-28T00:57:22.977Z,0.90
2022-09-28T01:07:25.964Z,0.68
2022-09-28T01:18:22.369Z,0.55
2022-09-28T01:28:27.360Z,0.77
2022-09-28T01:38:34.539Z,0.93
2022-09-28T01:48:43.762Z,0.60
2022-09-28T01:58:51.926Z,0.88
2022-09-28T02:08:59.546Z,0.70
2022-09-28T02:19:04.388Z,1.80
2022-09-28T02:29:06.085Z,0.98
2022-09-28T02:39:17.998Z,0.95
2022-09-28T02:49:50.019Z,0.82
2022-09-28T03:00:00.351Z,0.68
2022-09-28T03:10:08.860Z,0.73
2022-09-28T03:20:12.064Z,0.77
2022-09-28T03:40:15.611Z,0.80
2022-09-28T03:50:17.481Z,0.88
2022-09-28T04:00:19.415Z,1.05
2022-09-28T04:10:21.068Z,0.68
2022-09-28T04:20:22.847Z,1.08
2022-09-28T04:30:24.950Z,0.88
2022-09-28T04:40:26.598Z,0.80
2022-09-28T04:50:28.410Z,1.13
2022-09-28T05:00:33.181Z,1.23
2022-09-28T05:10:42.251Z,0.95
2022-09-28T05:20:43.944Z,0.90
2022-09-28T05:30:45.686Z,2.95
2022-09-28T05:40:48.928Z,1.50
2022-09-28T05:50:52.501Z,1.40
2022-09-28T06:00:56.409Z,1.70
2022-09-28T06:11:03.013Z,1.23
2022-09-28T06:21:05.976Z,1.10
2022-09-28T06:31:08.195Z,1.20
2022-09-28T06:41:11.899Z,0.80
2022-09-28T06:51:14.666Z,0.75
2022-09-28T07:01:17.362Z,1.55
2022-09-28T07:11:27.354Z,1.10
2022-09-28T07:21:30.646Z,1.30
2022-09-28T07:31:33.817Z,0.98
2022-09-28T07:41:36.260Z,1.40
2022-09-28T07:51:37.883Z,1.10
2022-09-28T08:01:39.634Z,1.65
2022-09-28T08:11:43.995Z,2.03
2022-09-28T08:21:45.625Z,1.35
2022-09-28T08:31:48.609Z,1.57
2022-09-28T08:42:00.123Z,3.65
2022-09-28T08:52:17.240Z,1.63
2022-09-28T09:02:34.183Z,1.15
2022-09-28T09:13:00.831Z,1.20
2022-09-28T09:23:15.437Z,1.10
2022-09-28T09:33:39.773Z,1.23
2022-09-28T09:44:06.014Z,1.60
2022-09-28T09:54:20.147Z,1.30
2022-09-28T10:04:27.981Z,1.33
2022-09-28T10:14:31.697Z,1.13
2022-09-28T10:24:45.291Z,1.48
2022-09-28T10:34:50.276Z,1.50
2022-09-28T10:44:59.499Z,1.27
2022-09-28T10:55:01.565Z,1.80
2022-09-28T11:05:06.684Z,2.35
2022-09-28T11:15:27.390Z,2.38
2022-09-28T11:25:31.418Z,1.93
2022-09-28T11:36:00.243Z,1.50
2022-09-28T11:46:10.850Z,1.48
2022-09-28T11:56:27.778Z,1.05
2022-09-28T12:06:41.040Z,1.30
2022-09-28T12:17:08.484Z,1.00
2022-09-28T12:27:18.245Z,0.80
2022-09-28T12:37:41.814Z,0.83
2022-09-28T12:47:57.419Z,0.90
2022-09-28T12:58:03.322Z,0.70
2022-09-28T13:08:42.472Z,0.50
2022-09-28T13:18:53.374Z,0.93
2022-09-28T13:29:04.460Z,0.70
2022-09-28T13:39:37.371Z,0.95
2022-09-28T13:49:40.360Z,0.75
2022-09-28T13:59:50.955Z,0.60
2022-09-28T14:10:21.127Z,0.60
2022-09-28T14:20:27.981Z,0.60
2022-09-28T14:30:41.866Z,0.45
2022-09-28T14:41:10.531Z,0.82
2022-09-28T14:51:42.459Z,0.45
2022-09-28T15:01:57.854Z,0.98
2022-09-28T15:12:21.745Z,0.50
2022-09-28T15:22:24.970Z,0.90
2022-09-28T15:32:31.844Z,0.65
2022-09-28T15:42:37.072Z,1.00
2022-09-28T15:53:17.534Z,0.93
2022-09-28T16:03:21.832Z,1.17
2022-09-28T16:13:25.066Z,0.65
2022-09-28T16:23:34.443Z,0.70
2022-09-28T16:33:54.227Z,1.20
2022-09-28T16:44:15.354Z,1.48
2022-09-28T16:54:43.186Z,1.60
2022-09-28T17:04:47.688Z,3.25
2022-09-28T17:14:49.577Z,2.22
2022-09-28T17:24:51.543Z,2.00
2022-09-28T17:35:06.467Z,2.67
2022-09-28T17:45:10.555Z,2.30
2022-09-28T17:55:16.307Z,2.45
2022-09-28T18:05:19.682Z,2.20
2022-09-28T18:15:22.734Z,2.55
2022-09-28T18:25:24.450Z,3.00
2022-09-28T18:35:26.115Z,3.40
2022-09-28T18:45:27.866Z,3.42
2022-09-28T18:55:30.577Z,3.05
2022-09-28T19:05:33.805Z,2.58
2022-09-28T19:15:35.511Z,3.28
2022-09-28T19:25:38.616Z,4.20
2022-09-28T19:35:41.634Z,4.80
2022-09-28T19:45:43.367Z,4.55
2022-09-28T19:55:51.167Z,5.47
2022-09-28T20:06:01.810Z,4.45
2022-09-28T20:16:09.314Z,4.82
2022-09-28T20:26:11.921Z,5.80
2022-09-28T20:36:16.398Z,5.87
2022-09-28T20:46:19.437Z,4.28
2022-09-28T21:06:27.820Z,4.15
2022-09-28T21:16:31.695Z,3.33
2022-09-28T21:26:33.633Z,3.78
2022-09-28T21:36:35.297Z,3.13
2022-09-28T21:46:39.068Z,3.92
2022-09-28T21:56:40.815Z,3.90
2022-09-28T22:06:42.859Z,4.90
2022-09-28T22:16:47.941Z,4.10
2022-09-28T22:26:55.642Z,4.97
2022-09-28T22:37:03.268Z,4.55
2022-09-28T22:47:07.489Z,4.82
2022-09-28T22:57:09.100Z,5.32
2022-09-28T23:07:10.733Z,5.38
2022-09-28T23:17:12.298Z,5.63
2022-09-28T23:27:15.908Z,6.50
2022-09-28T23:37:17.630Z,9.48
2022-09-28T23:47:19.713Z,6.53
2022-09-28T23:57:21.298Z,6.50
